Time;durP1;ratioP1;P1;durP2;ratioP2;P2;SDS_P1;SDS_P2;PMS_P1;PMS_P2;Temp;Humidity;BMP_temperature;BMP_pressure;BME280_temperature;BME280_humidity;BME280_pressure;Samples;Min_cycle;Max_cycle;Signal;HPM_P1;HPM_P2
2023/01/17 00:01:04;;;;;;;0.60;0.60;;;;;;;;;;4937103;29;20952;-67
2023/01/17 00:03:30;;;;;;;0.50;0.50;;;;;;;;;;4936814;29;20404;-66
2023/01/17 00:11:25;;;;;;;0.90;0.90;;;;;;;;;;4936738;29;20554;-66
2023/01/17 00:13:51;;;;;;;0.83;0.83;;;;;;;;;;4937398;29;20913;-66
2023/01/17 00:16:17;;;;;;;1.23;0.53;;;;;;;;;;4936342;29;20412;-66
2023/01/17 00:26:01;;;;;;;0.60;0.60;;;;;;;;;;4936171;29;20458;-66
2023/01/17 01:33:55;;;;;;;0.40;0.40;;;;;;;;;;4939826;29;20415;-66
2023/01/17 01:36:21;;;;;;;0.30;0.30;;;;;;;;;;4939201;29;20412;-66
2023/01/17 01:38:49;;;;;;;0.53;0.50;;;;;;;;;;4939037;29;20431;-66
2023/01/17 01:41:14;;;;;;;0.40;0.40;;;;;;;;;;4939369;29;20412;-65
2023/01/17 01:43:43;;;;;;;0.40;0.40;;;;;;;;;;4939469;29;20563;-66
2023/01/17 01:46:10;;;;;;;0.30;0.30;;;;;;;;;;4939252;29;20411;-65
2023/01/17 01:48:40;;;;;;;0.40;0.40;;;;;;;;;;4938870;29;20420;-67
2023/01/17 01:51:07;;;;;;;0.30;0.30;;;;;;;;;;4938819;29;20475;-65
2023/01/17 01:53:35;;;;;;;0.47;0.47;;;;;;;;;;4938809;29;20567;-65
2023/01/17 01:56:02;;;;;;;0.40;0.40;;;;;;;;;;4938830;29;20900;-65
2023/01/17 01:58:31;;;;;;;0.70;0.50;;;;;;;;;;4938756;29;20922;-66
2023/01/17 02:00:57;;;;;;;0.77;0.77;;;;;;;;;;4938742;29;20475;-66
2023/01/17 02:03:26;;;;;;;0.63;0.50;;;;;;;;;;4939000;29;20561;-66
2023/01/17 02:05:52;;;;;;;0.40;0.40;;;;;;;;;;4921341;29;20443;-66
2023/01/17 02:08:19;;;;;;;0.33;0.33;;;;;;;;;;4938492;29;20416;-66
2023/01/17 02:10:46;;;;;;;0.60;0.60;;;;;;;;;;4938585;29;20493;-66
2023/01/17 02:13:13;;;;;;;1.17;0.40;;;;;;;;;;4938591;29;20447;-65
2023/01/17 02:15:48;;;;;;;1.07;0.50;;;;;;;;;;4938742;29;20991;-66
2023/01/17 02:18:24;;;;;;;1.37;0.50;;;;;;;;;;4938424;29;20411;-66
2023/01/17 02:21:14;;;;;;;0.30;0.30;;;;;;;;;;4938665;29;20828;-65
2023/01/17 02:23:59;;;;;;;0.43;0.43;;;;;;;;;;4938320;29;20424;-65
2023/01/17 02:26:44;;;;;;;0.77;0.43;;;;;;;;;;4938308;29;20901;-66
2023/01/17 02:29:28;;;;;;;0.37;0.37;;;;;;;;;;4938208;29;20419;-66
2023/01/17 02:32:10;;;;;;;0.43;0.43;;;;;;;;;;4938067;29;20573;-65
2023/01/17 02:34:48;;;;;;;1.80;1.70;;;;;;;;;;4938204;29;20396;-66
2023/01/17 02:37:21;;;;;;;1.60;1.50;;;;;;;;;;4938553;29;20470;-65
2023/01/17 02:39:52;;;;;;;14.83;7.47;;;;;;;;;;4938359;29;20416;-66
2023/01/17 02:42:20;;;;;;;28.10;11.40;;;;;;;;;;4938304;29;20420;-66
2023/01/17 02:44:46;;;;;;;15.13;8.13;;;;;;;;;;4938224;29;20431;-67
2023/01/17 02:47:23;;;;;;;45.13;15.20;;;;;;;;;;4937942;29;20431;-65
2023/01/17 02:49:51;;;;;;;2.80;2.60;;;;;;;;;;4938307;29;20410;-66
2023/01/17 02:52:20;;;;;;;4.50;1.33;;;;;;;;;;4938436;29;20490;-66
2023/01/17 02:55:00;;;;;;;0.50;0.50;;;;;;;;;;4937707;29;20950;-65
2023/01/17 02:57:44;;;;;;;0.77;0.70;;;;;;;;;;4938754;29;20438;-65
2023/01/17 03:00:28;;;;;;;1.00;1.00;;;;;;;;;;4938064;29;20514;-66
2023/01/17 03:06:10;;;;;;;2.17;0.77;;;;;;;;;;4937710;29;20492;-65
2023/01/17 03:08:37;;;;;;;0.80;0.80;;;;;;;;;;4937668;29;20753;-65
2023/01/17 03:11:03;;;;;;;0.60;0.60;;;;;;;;;;4937425;29;20476;-68
2023/01/17 03:13:29;;;;;;;0.53;0.53;;;;;;;;;;4937673;29;20427;-66
2023/01/17 03:15:55;;;;;;;0.60;0.50;;;;;;;;;;4937446;29;20404;-67
2023/01/17 03:18:22;;;;;;;0.60;0.60;;;;;;;;;;4937291;29;20448;-65
2023/01/17 03:20:48;;;;;;;0.60;0.60;;;;;;;;;;4938104;29;20749;-65
2023/01/17 03:23:14;;;;;;;0.50;0.50;;;;;;;;;;4937483;29;20416;-65
2023/01/17 03:25:40;;;;;;;0.60;0.60;;;;;;;;;;4937247;29;20825;-66
2023/01/17 03:28:06;;;;;;;0.40;0.40;;;;;;;;;;4937063;29;20446;-65
2023/01/17 03:30:31;;;;;;;2.27;0.63;;;;;;;;;;4937374;29;20467;-66
2023/01/17 03:32:57;;;;;;;1.67;0.63;;;;;;;;;;4937021;29;20432;-66
2023/01/17 03:35:23;;;;;;;3.80;0.50;;;;;;;;;;4936875;29;20430;-65
2023/01/17 03:37:49;;;;;;;1.33;0.70;;;;;;;;;;4936953;29;20565;-65
2023/01/17 03:40:15;;;;;;;0.80;0.80;;;;;;;;;;4937190;29;20419;-65
2023/01/17 03:42:42;;;;;;;1.07;0.63;;;;;;;;;;4937137;29;20425;-65
2023/01/17 03:45:08;;;;;;;1.70;0.60;;;;;;;;;;4937156;29;20427;-65
2023/01/17 03:47:35;;;;;;;3.70;0.97;;;;;;;;;;4936773;29;20416;-66
2023/01/17 03:50:01;;;;;;;0.60;0.60;;;;;;;;;;4936759;29;20478;-65
2023/01/17 03:52:27;;;;;;;1.23;0.50;;;;;;;;;;4936573;29;20967;-65
2023/01/17 03:54:53;;;;;;;1.20;1.10;;;;;;;;;;4936709;29;20422;-65
2023/01/17 03:57:19;;;;;;;0.70;0.70;;;;;;;;;;4936682;29;20897;-66
2023/01/17 03:59:45;;;;;;;0.37;0.37;;;;;;;;;;4936482;29;20416;-66
2023/01/17 04:02:12;;;;;;;0.50;0.50;;;;;;;;;;4936807;29;20416;-67
2023/01/17 04:04:38;;;;;;;0.77;0.60;;;;;;;;;;4936818;29;20444;-65
2023/01/17 04:07:04;;;;;;;1.13;0.53;;;;;;;;;;4936264;29;20827;-67
2023/01/17 04:09:33;;;;;;;1.30;0.50;;;;;;;;;;4936359;29;20464;-65
2023/01/17 04:12:02;;;;;;;3.67;3.47;;;;;;;;;;4936561;29;20471;-65
2023/01/17 04:14:28;;;;;;;6.23;5.00;;;;;;;;;;4936677;29;20417;-66
2023/01/17 04:16:55;;;;;;;124.60;65.57;;;;;;;;;;4936351;29;20451;-65
2023/01/17 04:19:21;;;;;;;3.13;1.87;;;;;;;;;;4936249;29;20510;-65
2023/01/17 04:21:47;;;;;;;0.87;0.60;;;;;;;;;;4936156;29;20467;-65
2023/01/17 04:24:13;;;;;;;1.33;0.63;;;;;;;;;;4936384;29;20428;-65
2023/01/17 04:26:39;;;;;;;0.77;0.77;;;;;;;;;;4936507;29;20427;-65
2023/01/17 04:29:05;;;;;;;1.13;1.13;;;;;;;;;;4936079;29;20428;-65
2023/01/17 04:31:31;;;;;;;0.80;0.80;;;;;;;;;;4936363;29;20472;-65
2023/01/17 04:33:57;;;;;;;2.73;1.00;;;;;;;;;;4936120;29;20901;-65
2023/01/17 04:36:23;;;;;;;3.83;1.50;;;;;;;;;;4936045;29;20431;-65
2023/01/17 04:38:49;;;;;;;2.20;1.37;;;;;;;;;;4936308;29;20407;-65
2023/01/17 04:41:15;;;;;;;6.83;6.40;;;;;;;;;;4936313;29;20423;-65
2023/01/17 04:43:40;;;;;;;4.13;3.73;;;;;;;;;;4936015;29;20424;-65
2023/01/17 04:46:09;;;;;;;3.33;3.23;;;;;;;;;;4936006;29;20545;-65
2023/01/17 04:48:35;;;;;;;2.43;2.30;;;;;;;;;;4936303;29;20466;-65
2023/01/17 04:51:01;;;;;;;1.00;0.90;;;;;;;;;;4935870;29;20467;-65
2023/01/17 04:53:28;;;;;;;0.63;0.63;;;;;;;;;;4936156;29;20443;-65
2023/01/17 04:55:54;;;;;;;0.93;0.83;;;;;;;;;;4936181;29;20427;-65
2023/01/17 04:58:20;;;;;;;1.33;1.23;;;;;;;;;;4936065;29;20423;-65
2023/01/17 05:00:49;;;;;;;0.77;0.77;;;;;;;;;;4935885;29;20789;-65
2023/01/17 05:03:16;;;;;;;0.60;0.60;;;;;;;;;;4936123;29;20479;-65
2023/01/17 05:05:42;;;;;;;0.70;0.70;;;;;;;;;;4935863;29;20523;-65
2023/01/17 05:08:08;;;;;;;0.63;0.63;;;;;;;;;;4935576;29;21031;-65
2023/01/17 05:10:34;;;;;;;1.33;0.90;;;;;;;;;;4935772;29;20416;-66
2023/01/17 05:13:01;;;;;;;0.83;0.83;;;;;;;;;;4935722;29;20858;-65
2023/01/17 05:15:27;;;;;;;0.97;0.97;;;;;;;;;;4936008;29;20416;-65
2023/01/17 05:17:54;;;;;;;1.80;0.97;;;;;;;;;;4935915;29;20432;-65
2023/01/17 05:20:20;;;;;;;1.63;1.40;;;;;;;;;;4935936;29;20420;-65
2023/01/17 05:22:54;;;;;;;1.03;1.03;;;;;;;;;;4935892;29;20428;-65
2023/01/17 05:25:20;;;;;;;0.73;0.73;;;;;;;;;;4936035;29;20743;-65
2023/01/17 05:27:46;;;;;;;0.50;0.50;;;;;;;;;;4935668;29;20427;-65
2023/01/17 05:30:12;;;;;;;1.43;0.50;;;;;;;;;;4918546;29;20439;-65
2023/01/17 05:32:38;;;;;;;0.50;0.50;;;;;;;;;;4935873;29;20618;-65
2023/01/17 05:35:04;;;;;;;2.30;1.20;;;;;;;;;;4935490;29;20459;-65
2023/01/17 05:37:30;;;;;;;0.70;0.70;;;;;;;;;;4935578;29;20510;-65
2023/01/17 05:39:56;;;;;;;0.80;0.80;;;;;;;;;;4935540;29;20893;-66
2023/01/17 05:42:22;;;;;;;0.97;0.70;;;;;;;;;;4935774;29;20432;-65
2023/01/17 05:44:48;;;;;;;0.73;0.73;;;;;;;;;;4935577;29;20412;-65
2023/01/17 05:47:14;;;;;;;0.60;0.60;;;;;;;;;;4935482;29;20527;-65
2023/01/17 05:49:40;;;;;;;0.50;0.50;;;;;;;;;;4919286;29;20436;-66
2023/01/17 05:52:06;;;;;;;4.00;1.00;;;;;;;;;;4935609;29;20483;-65
2023/01/17 05:54:32;;;;;;;2.30;2.20;;;;;;;;;;4935668;29;20443;-66
2023/01/17 05:56:58;;;;;;;2.80;2.13;;;;;;;;;;4935973;29;20919;-65
2023/01/17 05:59:24;;;;;;;2.60;1.30;;;;;;;;;;4939106;29;20420;-65
2023/01/17 06:01:50;;;;;;;1.70;1.60;;;;;;;;;;4939630;29;20454;-65
2023/01/17 06:04:16;;;;;;;3.17;1.50;;;;;;;;;;4938941;29;20426;-65
2023/01/17 06:06:42;;;;;;;2.47;2.27;;;;;;;;;;4938458;29;20471;-65
2023/01/17 06:09:08;;;;;;;2.50;1.73;;;;;;;;;;4938655;29;20444;-65
2023/01/17 06:11:34;;;;;;;2.23;2.13;;;;;;;;;;4938906;29;20625;-65
2023/01/17 06:13:59;;;;;;;2.23;2.03;;;;;;;;;;4938888;29;20561;-65
2023/01/17 06:16:25;;;;;;;1.47;1.37;;;;;;;;;;4938495;29;20431;-65
2023/01/17 06:18:51;;;;;;;4.37;1.87;;;;;;;;;;4921296;29;20424;-66
2023/01/17 06:21:18;;;;;;;1.90;1.80;;;;;;;;;;4938461;29;20431;-66
2023/01/17 06:26:47;;;;;;;41.40;14.63;;;;;;;;;;4938500;29;20793;-66
2023/01/17 06:29:13;;;;;;;49.17;22.07;;;;;;;;;;4938750;29;20415;-66
2023/01/17 06:31:39;;;;;;;35.43;15.77;;;;;;;;;;4938790;29;20982;-66
2023/01/17 06:34:05;;;;;;;19.87;9.37;;;;;;;;;;4938521;29;20420;-66
2023/01/17 06:36:34;;;;;;;9.67;6.77;;;;;;;;;;4938391;29;20748;-66
2023/01/17 06:39:00;;;;;;;5.90;4.27;;;;;;;;;;4921767;29;20863;-66
2023/01/17 06:41:26;;;;;;;7.97;4.03;;;;;;;;;;4938292;29;20487;-66
2023/01/17 06:43:52;;;;;;;2.13;2.03;;;;;;;;;;4938327;29;20912;-66
2023/01/17 06:46:19;;;;;;;8.50;2.40;;;;;;;;;;4920545;29;20533;-65
2023/01/17 06:48:47;;;;;;;5.07;4.60;;;;;;;;;;4938090;29;20424;-66
2023/01/17 06:51:13;;;;;;;7.47;5.43;;;;;;;;;;4937953;29;20468;-68
2023/01/17 06:53:39;;;;;;;10.03;3.63;;;;;;;;;;4938216;29;20765;-68
2023/01/17 06:56:05;;;;;;;3.70;3.40;;;;;;;;;;4937696;29;20912;-70
2023/01/17 06:58:31;;;;;;;3.37;3.17;;;;;;;;;;4936987;29;20436;-70
2023/01/17 07:00:57;;;;;;;2.57;2.37;;;;;;;;;;4937552;29;20411;-70
2023/01/17 07:03:24;;;;;;;2.93;2.17;;;;;;;;;;4937627;29;20427;-70
2023/01/17 07:05:50;;;;;;;1.90;1.80;;;;;;;;;;4937336;29;20897;-66
2023/01/17 07:08:18;;;;;;;3.30;2.50;;;;;;;;;;4937215;29;20567;-68
2023/01/17 07:10:45;;;;;;;3.80;1.83;;;;;;;;;;4937341;29;20879;-67
2023/01/17 07:13:11;;;;;;;3.97;1.33;;;;;;;;;;4937959;29;20519;-70
2023/01/17 07:15:38;;;;;;;3.20;2.90;;;;;;;;;;4937505;29;20507;-67
2023/01/17 07:18:04;;;;;;;46.73;20.67;;;;;;;;;;4937503;29;20432;-67
2023/01/17 07:20:31;;;;;;;13.90;8.70;;;;;;;;;;4937830;29;20756;-71
2023/01/17 07:22:57;;;;;;;10.85;5.50;;;;;;;;;;4937272;29;20421;-69
2023/01/17 07:25:23;;;;;;;7.60;5.87;;;;;;;;;;4937512;29;20187;-70
2023/01/17 07:27:52;;;;;;;47.20;21.47;;;;;;;;;;4937405;29;20884;-68
2023/01/17 07:30:18;;;;;;;38.30;18.70;;;;;;;;;;4937267;29;20494;-67
2023/01/17 07:32:44;;;;;;;28.43;14.80;;;;;;;;;;4937068;29;20983;-67
2023/01/17 07:35:10;;;;;;;27.20;10.30;;;;;;;;;;4937853;29;20415;-67
2023/01/17 07:37:36;;;;;;;15.47;6.73;;;;;;;;;;4937243;29;20420;-67
2023/01/17 07:40:03;;;;;;;4.47;4.03;;;;;;;;;;4936911;29;20424;-67
2023/01/17 07:42:29;;;;;;;3.40;3.10;;;;;;;;;;4937196;29;20435;-70
2023/01/17 07:44:55;;;;;;;3.30;3.00;;;;;;;;;;4937436;29;20931;-70
2023/01/17 07:47:21;;;;;;;24.63;8.37;;;;;;;;;;4937119;29;20778;-69
2023/01/17 07:49:47;;;;;;;12.33;6.77;;;;;;;;;;4936692;29;20412;-67
2023/01/17 07:52:13;;;;;;;10.83;6.70;;;;;;;;;;4936908;29;20479;-69
2023/01/17 07:54:38;;;;;;;13.87;8.03;;;;;;;;;;4937255;29;20882;-69
2023/01/17 07:57:04;;;;;;;15.80;8.13;;;;;;;;;;4936942;29;20935;-69
2023/01/17 07:59:32;;;;;;;14.20;7.13;;;;;;;;;;4936870;29;20447;-68
2023/01/17 08:01:58;;;;;;;38.87;12.97;;;;;;;;;;4936701;29;20841;-66
2023/01/17 08:04:25;;;;;;;32.00;13.13;;;;;;;;;;4919517;29;20416;-67
2023/01/17 08:06:53;;;;;;;18.03;9.60;;;;;;;;;;4936692;29;20481;-69
2023/01/17 08:09:19;;;;;;;36.00;18.90;;;;;;;;;;4935804;29;20417;-66
2023/01/17 08:11:45;;;;;;;39.00;20.57;;;;;;;;;;4936630;29;20471;-66
2023/01/17 08:14:11;;;;;;;43.80;20.07;;;;;;;;;;4936793;29;20420;-66
2023/01/17 08:16:38;;;;;;;20.13;11.73;;;;;;;;;;4936395;29;20486;-66
2023/01/17 08:19:04;;;;;;;10.70;6.90;;;;;;;;;;4936541;29;20427;-66
2023/01/17 08:21:30;;;;;;;11.80;8.03;;;;;;;;;;4936291;29;20440;-66
2023/01/17 08:23:56;;;;;;;9.50;6.47;;;;;;;;;;4936554;29;20427;-66
2023/01/17 08:26:22;;;;;;;10.27;6.13;;;;;;;;;;4936522;29;20428;-66
2023/01/17 08:28:56;;;;;;;10.33;5.17;;;;;;;;;;4936665;29;20506;-66
2023/01/17 08:31:23;;;;;;;8.13;6.00;;;;;;;;;;4936163;29;20479;-66
2023/01/17 08:36:52;;;;;;;6.93;5.80;;;;;;;;;;4936168;29;20403;-66
2023/01/17 08:39:20;;;;;;;11.80;7.80;;;;;;;;;;4936201;29;20427;-67
2023/01/17 08:41:46;;;;;;;10.93;7.17;;;;;;;;;;4936267;29;20404;-67
2023/01/17 08:44:14;;;;;;;7.33;6.40;;;;;;;;;;4936006;29;20899;-67
2023/01/17 08:46:40;;;;;;;11.60;7.70;;;;;;;;;;4936365;29;20424;-66
2023/01/17 08:49:08;;;;;;;24.57;14.73;;;;;;;;;;4936187;29;20428;-67
2023/01/17 08:51:34;;;;;;;18.80;7.20;;;;;;;;;;4936012;29;20471;-67
2023/01/17 08:54:00;;;;;;;9.20;4.77;;;;;;;;;;4936031;29;20467;-66
2023/01/17 08:56:26;;;;;;;4.90;4.13;;;;;;;;;;4935813;29;20576;-67
2023/01/17 08:58:52;;;;;;;3.43;3.13;;;;;;;;;;4936160;29;20545;-67
2023/01/17 09:01:18;;;;;;;4.83;2.70;;;;;;;;;;4936029;29;20424;-66
2023/01/17 09:03:44;;;;;;;3.67;3.43;;;;;;;;;;4935883;29;20419;-66
2023/01/17 09:06:11;;;;;;;6.40;4.97;;;;;;;;;;4935540;29;20555;-68
2023/01/17 09:08:38;;;;;;;16.83;8.90;;;;;;;;;;4935727;29;20766;-66
2023/01/17 09:11:04;;;;;;;4.60;4.17;;;;;;;;;;4935766;29;20565;-67
2023/01/17 09:13:30;;;;;;;19.50;4.70;;;;;;;;;;4935824;29;20447;-66
2023/01/17 09:15:57;;;;;;;4.00;3.23;;;;;;;;;;4936313;29;20939;-66
2023/01/17 09:18:24;;;;;;;4.50;3.70;;;;;;;;;;4935643;29;20967;-66
2023/01/17 09:20:53;;;;;;;3.60;2.90;;;;;;;;;;4936254;29;20435;-66
2023/01/17 09:23:19;;;;;;;8.23;3.30;;;;;;;;;;4935977;29;20470;-66
2023/01/17 09:25:51;;;;;;;3.27;2.63;;;;;;;;;;4935647;29;20979;-66
2023/01/17 09:28:17;;;;;;;6.87;3.13;;;;;;;;;;4936038;29;20494;-67
2023/01/17 09:30:43;;;;;;;7.83;3.13;;;;;;;;;;4935549;29;20904;-66
2023/01/17 09:33:09;;;;;;;8.60;5.50;;;;;;;;;;4938020;29;20943;-66
2023/01/17 09:35:35;;;;;;;40.93;18.03;;;;;;;;;;4939282;29;20439;-66
2023/01/17 09:38:00;;;;;;;5.93;4.20;;;;;;;;;;4939414;29;20455;-66
2023/01/17 09:40:26;;;;;;;17.67;8.00;;;;;;;;;;4939035;29;20883;-66
2023/01/17 09:42:56;;;;;;;20.23;8.00;;;;;;;;;;4939264;29;20416;-66
2023/01/17 09:45:24;;;;;;;3.47;3.17;;;;;;;;;;4939337;29;20527;-66
2023/01/17 09:47:52;;;;;;;4.93;3.40;;;;;;;;;;4939362;29;20427;-66
2023/01/17 09:50:26;;;;;;;3.80;2.00;;;;;;;;;;4939114;29;20430;-66
2023/01/17 09:52:59;;;;;;;4.30;1.60;;;;;;;;;;4939224;29;20474;-66
2023/01/17 09:55:26;;;;;;;5.93;5.43;;;;;;;;;;4938774;29;20415;-66
2023/01/17 09:58:12;;;;;;;5.03;2.57;;;;;;;;;;4939119;29;20419;-67
2023/01/17 10:01:02;;;;;;;3.27;2.37;;;;;;;;;;4938613;29;20438;-66
2023/01/17 10:03:40;;;;;;;3.93;2.30;;;;;;;;;;4938995;29;20491;-66
2023/01/17 10:06:14;;;;;;;1.23;1.20;;;;;;;;;;4938640;29;20431;-66
2023/01/17 10:08:49;;;;;;;1.93;1.73;;;;;;;;;;4938787;29;20412;-66
2023/01/17 10:11:24;;;;;;;1.30;1.00;;;;;;;;;;4938945;29;20467;-66
2023/01/17 10:13:50;;;;;;;1.23;1.23;;;;;;;;;;4938864;29;20407;-67
2023/01/17 10:16:35;;;;;;;2.00;1.20;;;;;;;;;;4938547;29;20589;-66
2023/01/17 10:19:11;;;;;;;5.17;2.70;;;;;;;;;;4938191;29;20968;-67
2023/01/17 10:21:51;;;;;;;5.00;3.50;;;;;;;;;;4938695;29;20747;-66
2023/01/17 10:24:32;;;;;;;3.37;0.90;;;;;;;;;;4938617;29;20872;-67
2023/01/17 10:26:59;;;;;;;1.90;1.00;;;;;;;;;;4938396;29;20543;-66
2023/01/17 10:29:28;;;;;;;0.93;0.93;;;;;;;;;;4938494;29;20423;-67
2023/01/17 10:32:03;;;;;;;1.33;1.23;;;;;;;;;;4938499;29;20494;-66
2023/01/17 10:34:36;;;;;;;1.17;0.83;;;;;;;;;;4938042;29;20412;-66
2023/01/17 10:37:14;;;;;;;0.67;0.67;;;;;;;;;;4938226;29;20479;-66
2023/01/17 10:39:40;;;;;;;0.70;0.70;;;;;;;;;;4938228;29;20404;-66
2023/01/17 10:42:13;;;;;;;0.80;0.80;;;;;;;;;;4921365;29;20939;-67
2023/01/17 10:45:11;;;;;;;3.80;0.70;;;;;;;;;;4921863;29;20420;-67
2023/01/17 10:47:38;;;;;;;0.70;0.70;;;;;;;;;;4916333;29;20441;-66
2023/01/17 10:50:04;;;;;;;2.60;0.73;;;;;;;;;;4938275;29;20415;-66
2023/01/17 10:52:36;;;;;;;0.70;0.70;;;;;;;;;;4920669;29;20489;-67
2023/01/17 10:55:10;;;;;;;4.07;0.70;;;;;;;;;;4937982;29;20439;-67
2023/01/17 10:57:43;;;;;;;1.20;0.70;;;;;;;;;;4938107;29;20432;-66
2023/01/17 11:00:12;;;;;;;1.37;0.73;;;;;;;;;;4937994;29;20427;-67
2023/01/17 11:02:41;;;;;;;1.30;0.83;;;;;;;;;;4937610;29;20435;-67
2023/01/17 11:05:19;;;;;;;1.23;1.07;;;;;;;;;;4937501;29;20431;-67
2023/01/17 11:08:02;;;;;;;1.50;1.50;;;;;;;;;;4937406;29;20570;-67
2023/01/17 11:10:35;;;;;;;0.90;0.90;;;;;;;;;;4937414;29;20426;-66
2023/01/17 11:13:02;;;;;;;6.03;1.80;;;;;;;;;;4937100;29;21023;-66
2023/01/17 11:15:28;;;;;;;2.27;1.23;;;;;;;;;;4937361;29;20463;-66
2023/01/17 11:18:05;;;;;;;0.70;0.70;;;;;;;;;;4937268;29;20975;-70
2023/01/17 11:20:31;;;;;;;1.10;1.00;;;;;;;;;;4937513;29;20431;-67
2023/01/17 11:23:03;;;;;;;2.73;0.90;;;;;;;;;;4937606;29;20427;-68
2023/01/17 11:25:32;;;;;;;1.20;1.10;;;;;;;;;;4937464;29;20450;-70
2023/01/17 11:28:18;;;;;;;1.40;1.07;;;;;;;;;;4937455;29;20523;-70
2023/01/17 11:30:54;;;;;;;1.37;1.27;;;;;;;;;;4937399;29;20401;-68
2023/01/17 11:33:33;;;;;;;3.10;1.10;;;;;;;;;;4937354;29;20439;-67
2023/01/17 11:35:59;;;;;;;8.90;1.33;;;;;;;;;;4937645;29;20758;-68
2023/01/17 11:38:25;;;;;;;3.97;0.83;;;;;;;;;;4937199;29;20438;-67
2023/01/17 11:41:18;;;;;;;1.73;1.23;;;;;;;;;;4937256;29;20460;-67
2023/01/17 11:43:57;;;;;;;1.20;0.93;;;;;;;;;;4936702;29;20792;-67
2023/01/17 11:46:23;;;;;;;1.03;1.03;;;;;;;;;;4937147;29;20411;-68
2023/01/17 11:48:53;;;;;;;1.30;1.00;;;;;;;;;;4936618;29;20423;-69
2023/01/17 11:51:46;;;;;;;1.07;1.00;;;;;;;;;;4936991;29;20471;-67
2023/01/17 11:54:16;;;;;;;2.30;0.70;;;;;;;;;;4935044;29;20467;-64
2023/01/17 11:56:45;;;;;;;1.60;1.50;;;;;;;;;;4936785;29;20439;-67
2023/01/17 11:59:21;;;;;;;2.20;1.60;;;;;;;;;;4936875;29;20414;-67
2023/01/17 12:01:51;;;;;;;2.57;1.03;;;;;;;;;;4936743;29;20417;-68
2023/01/17 12:04:27;;;;;;;0.83;0.83;;;;;;;;;;4919502;29;20431;-68
2023/01/17 12:06:54;;;;;;;1.20;1.20;;;;;;;;;;4936384;29;20463;-68
2023/01/17 12:09:32;;;;;;;1.17;1.17;;;;;;;;;;4937000;29;20412;-68
2023/01/17 12:15:02;;;;;;;3.50;1.40;;;;;;;;;;4936628;29;20407;-69
2023/01/17 12:17:37;;;;;;;1.93;1.80;;;;;;;;;;4936711;29;20486;-70
2023/01/17 12:20:04;;;;;;;9.97;3.50;;;;;;;;;;4936551;29;20423;-69
2023/01/17 12:22:33;;;;;;;2.73;1.90;;;;;;;;;;4936379;29;20424;-68
2023/01/17 12:25:29;;;;;;;2.30;2.20;;;;;;;;;;4936579;29;20768;-69
2023/01/17 12:28:15;;;;;;;1.00;1.00;;;;;;;;;;4901486;29;20433;-68
2023/01/17 12:30:49;;;;;;;1.70;1.17;;;;;;;;;;4936277;29;20446;-71
2023/01/17 12:33:38;;;;;;;1.40;1.30;;;;;;;;;;4936197;29;20439;-69
2023/01/17 12:36:16;;;;;;;2.00;1.90;;;;;;;;;;4936138;29;20415;-68
2023/01/17 12:38:42;;;;;;;2.03;1.27;;;;;;;;;;4936425;29;20389;-70
2023/01/17 12:41:19;;;;;;;2.20;1.30;;;;;;;;;;4936115;29;20483;-68
2023/01/17 12:47:00;;;;;;;1.50;1.40;;;;;;;;;;4936165;29;20403;-68
2023/01/17 12:49:26;;;;;;;1.13;1.13;;;;;;;;;;4936487;29;20415;-70
2023/01/17 12:51:53;;;;;;;3.20;1.40;;;;;;;;;;4935924;29;20479;-70
2023/01/17 12:54:23;;;;;;;3.00;1.50;;;;;;;;;;4936248;29;20424;-68
2023/01/17 12:56:54;;;;;;;2.30;1.47;;;;;;;;;;4936252;29;20506;-68
2023/01/17 12:59:36;;;;;;;2.10;2.00;;;;;;;;;;4936168;29;20427;-71
2023/01/17 13:02:06;;;;;;;8.33;1.80;;;;;;;;;;4935574;29;20506;-67
2023/01/17 13:04:36;;;;;;;2.50;1.50;;;;;;;;;;4936100;29;20416;-67
2023/01/17 13:07:02;;;;;;;3.03;1.40;;;;;;;;;;4936375;29;20472;-67
2023/01/17 13:09:34;;;;;;;1.40;1.40;;;;;;;;;;4939750;29;20424;-67
2023/01/17 13:12:10;;;;;;;1.27;1.27;;;;;;;;;;4939563;29;20467;-68
2023/01/17 13:14:36;;;;;;;8.83;1.70;;;;;;;;;;4940220;29;20411;-67
2023/01/17 13:17:10;;;;;;;1.33;1.23;;;;;;;;;;4939756;29;20537;-67
2023/01/17 13:19:36;;;;;;;2.93;1.60;;;;;;;;;;4939802;29;20404;-71
2023/01/17 13:22:05;;;;;;;1.27;1.17;;;;;;;;;;4939718;29;20419;-70
2023/01/17 13:24:41;;;;;;;2.43;1.30;;;;;;;;;;4939503;29;20415;-68
2023/01/17 13:27:26;;;;;;;3.80;1.10;;;;;;;;;;4939588;29;20408;-69
2023/01/17 13:29:58;;;;;;;4.70;1.20;;;;;;;;;;4939349;29;20558;-69
2023/01/17 13:32:27;;;;;;;0.90;0.90;;;;;;;;;;4939206;29;20475;-69
2023/01/17 13:35:11;;;;;;;1.87;0.90;;;;;;;;;;4939554;29;20490;-67
2023/01/17 13:37:46;;;;;;;1.90;1.77;;;;;;;;;;4939402;29;20416;-69
2023/01/17 13:40:27;;;;;;;2.70;1.30;;;;;;;;;;4939338;29;20411;-67
2023/01/17 13:42:59;;;;;;;0.60;0.60;;;;;;;;;;4939809;29;20424;-67
2023/01/17 13:45:29;;;;;;;2.20;1.10;;;;;;;;;;4939444;29;20486;-67
2023/01/17 13:48:13;;;;;;;3.23;2.27;;;;;;;;;;4939179;29;20435;-67
2023/01/17 13:50:42;;;;;;;1.70;1.60;;;;;;;;;;4939059;29;20412;-68
2023/01/17 13:53:30;;;;;;;5.50;4.80;;;;;;;;;;4938821;29;20487;-66
2023/01/17 13:55:58;;;;;;;6.90;4.40;;;;;;;;;;4932396;29;20434;-68
2023/01/17 13:58:27;;;;;;;6.20;5.90;;;;;;;;;;4938887;29;20432;-68
2023/01/17 14:00:54;;;;;;;1.97;1.87;;;;;;;;;;4938686;29;20891;-68
2023/01/17 14:03:56;;;;;;;1.90;1.90;;;;;;;;;;4938715;29;20478;-69
2023/01/17 14:06:28;;;;;;;2.37;2.27;;;;;;;;;;4938411;29;20941;-66
2023/01/17 14:08:59;;;;;;;1.90;1.80;;;;;;;;;;4938939;29;20434;-68
2023/01/17 14:11:25;;;;;;;1.43;1.07;;;;;;;;;;4939063;29;20467;-67
2023/01/17 14:13:51;;;;;;;1.50;1.40;;;;;;;;;;4938894;29;20415;-68
2023/01/17 14:16:30;;;;;;;3.47;1.43;;;;;;;;;;4938283;29;20419;-66
2023/01/17 14:18:57;;;;;;;2.47;2.27;;;;;;;;;;4937989;29;20423;-68
2023/01/17 14:21:23;;;;;;;4.10;2.50;;;;;;;;;;4938649;29;20431;-69
2023/01/17 14:23:58;;;;;;;3.00;2.00;;;;;;;;;;4938686;29;20927;-66
2023/01/17 14:26:29;;;;;;;3.33;2.53;;;;;;;;;;4938652;29;20435;-66
2023/01/17 14:28:55;;;;;;;2.23;1.77;;;;;;;;;;4938195;29;20419;-68
2023/01/17 14:31:22;;;;;;;4.07;3.27;;;;;;;;;;4938353;29;20958;-67
2023/01/17 14:33:48;;;;;;;4.67;2.40;;;;;;;;;;4938390;29;20424;-67
2023/01/17 14:36:23;;;;;;;3.90;2.20;;;;;;;;;;4938444;29;20424;-67
2023/01/17 14:38:49;;;;;;;1.47;1.47;;;;;;;;;;4938131;29;20451;-67
2023/01/17 14:41:26;;;;;;;1.67;1.67;;;;;;;;;;4938170;29;20412;-67
2023/01/17 14:43:53;;;;;;;1.40;1.40;;;;;;;;;;4938391;29;20801;-66
2023/01/17 14:46:21;;;;;;;0.70;0.70;;;;;;;;;;4938387;29;20408;-67
2023/01/17 14:48:47;;;;;;;1.90;1.20;;;;;;;;;;4937889;29;20432;-67
2023/01/17 14:51:18;;;;;;;1.90;1.03;;;;;;;;;;4937830;29;20471;-67
2023/01/17 14:53:54;;;;;;;0.50;0.50;;;;;;;;;;4938235;29;20463;-68
2023/01/17 14:56:20;;;;;;;0.63;0.63;;;;;;;;;;4938536;29;20447;-66
2023/01/17 14:58:46;;;;;;;0.70;0.70;;;;;;;;;;4937745;29;20843;-66
2023/01/17 15:01:13;;;;;;;0.50;0.50;;;;;;;;;;4938034;29;20515;-66
2023/01/17 15:03:53;;;;;;;7.20;1.80;;;;;;;;;;4938342;29;20499;-66
2023/01/17 15:06:24;;;;;;;2.53;1.53;;;;;;;;;;4937433;29;20578;-66
2023/01/17 15:08:53;;;;;;;4.60;1.10;;;;;;;;;;4937693;29;20404;-67
2023/01/17 15:11:25;;;;;;;0.70;0.70;;;;;;;;;;4937446;29;20983;-67
2023/01/17 15:13:53;;;;;;;0.60;0.60;;;;;;;;;;4937815;29;20483;-66
2023/01/17 15:16:19;;;;;;;0.70;0.70;;;;;;;;;;4937774;29;20427;-66
2023/01/17 15:18:46;;;;;;;1.20;1.20;;;;;;;;;;4937989;29;20428;-66
2023/01/17 15:21:15;;;;;;;1.47;1.37;;;;;;;;;;4937360;29;20447;-66
2023/01/17 15:23:45;;;;;;;3.10;2.90;;;;;;;;;;4937362;29;20420;-66
2023/01/17 15:26:17;;;;;;;4.43;4.03;;;;;;;;;;4937407;29;20502;-66
2023/01/17 15:28:46;;;;;;;12.83;9.20;;;;;;;;;;4937988;29;20764;-66
2023/01/17 15:31:14;;;;;;;4.30;3.90;;;;;;;;;;4936353;29;20978;-66
2023/01/17 15:33:42;;;;;;;3.67;3.37;;;;;;;;;;4937859;29;20420;-66
2023/01/17 15:36:10;;;;;;;7.10;3.90;;;;;;;;;;4937422;29;20420;-66
2023/01/17 15:38:36;;;;;;;4.93;3.30;;;;;;;;;;4919901;29;20428;-66
2023/01/17 15:41:10;;;;;;;4.93;4.10;;;;;;;;;;4937365;29;20408;-66
2023/01/17 15:43:37;;;;;;;4.10;1.83;;;;;;;;;;4937925;29;20420;-67
2023/01/17 15:46:03;;;;;;;4.17;2.33;;;;;;;;;;4937208;29;20431;-66
2023/01/17 15:48:40;;;;;;;2.20;2.10;;;;;;;;;;4937165;29;20412;-66
2023/01/17 15:51:07;;;;;;;2.10;1.90;;;;;;;;;;4936781;29;20983;-66
2023/01/17 15:53:35;;;;;;;2.90;2.70;;;;;;;;;;4936831;29;20432;-66
2023/01/17 15:56:18;;;;;;;2.20;2.00;;;;;;;;;;4936742;29;20503;-66
2023/01/17 15:58:47;;;;;;;5.70;5.20;;;;;;;;;;4936765;29;20411;-66
2023/01/17 16:01:16;;;;;;;6.67;5.97;;;;;;;;;;4936705;29;20824;-66
2023/01/17 16:03:50;;;;;;;4.00;3.70;;;;;;;;;;4936934;29;20428;-66
2023/01/17 16:06:35;;;;;;;4.17;3.43;;;;;;;;;;4936651;29;20554;-66
2023/01/17 16:09:03;;;;;;;9.97;4.63;;;;;;;;;;4936844;29;20459;-66
2023/01/17 16:11:29;;;;;;;5.90;5.40;;;;;;;;;;4936452;29;21030;-66
2023/01/17 16:17:00;;;;;;;10.07;5.60;;;;;;;;;;4936500;29;20398;-66
2023/01/17 16:19:26;;;;;;;13.73;7.47;;;;;;;;;;4936355;29;20412;-65
2023/01/17 16:21:55;;;;;;;2.27;2.20;;;;;;;;;;4936414;29;20438;-65
2023/01/17 16:24:21;;;;;;;3.23;2.17;;;;;;;;;;4936417;29;20419;-66
2023/01/17 16:26:47;;;;;;;2.80;1.67;;;;;;;;;;4936463;29;20482;-66
2023/01/17 16:29:13;;;;;;;2.00;1.90;;;;;;;;;;4935953;29;20412;-67
2023/01/17 16:31:39;;;;;;;2.33;2.17;;;;;;;;;;4936348;29;20566;-66